Time;durP1;ratioP1;P1;durP2;ratioP2;P2;SDS_P1;SDS_P2;PMS_P1;PMS_P2;Temp;Humidity;BMP_temperature;BMP_pressure;BME280_temperature;BME280_humidity;BME280_pressure;Samples;Min_cycle;Max_cycle;Signal;HPM_P1;HPM_P2
2021/07/28 00:00:28;;;;;;;7.30;3.03;;;26.70;34.60;;;;;;20135733;28;80800;-72
2021/07/28 00:10:30;;;;;;;5.70;3.53;;;26.60;34.50;;;;;;20133376;29;80670;-66
2021/07/28 00:30:35;;;;;;;7.78;3.30;;;26.40;34.70;;;;;;20136717;28;80326;-66
2021/07/28 00:40:36;;;;;;;5.35;3.22;;;26.10;35.70;;;;;;20131749;29;81915;-66
2021/07/28 00:50:39;;;;;;;4.45;3.05;;;25.90;36.40;;;;;;20130808;29;80660;-66
2021/07/28 01:00:41;;;;;;;6.95;3.72;;;25.60;37.60;;;;;;20136623;29;80152;-66
2021/07/28 01:10:45;;;;;;;5.30;3.40;;;25.50;38.30;;;;;;20130372;29;80794;-65
2021/07/28 01:20:49;;;;;;;6.55;3.50;;;25.30;38.50;;;;;;20129820;29;80827;-65
2021/07/28 01:31:00;;;;;;;5.63;2.95;;;25.20;38.50;;;;;;20128076;29;80692;-66
2021/07/28 01:41:08;;;;;;;8.70;3.95;;;25.00;39.10;;;;;;20134656;29;81972;-65
2021/07/28 01:51:24;;;;;;;6.00;3.35;;;24.90;40.00;;;;;;20179375;28;81130;-65
2021/07/28 02:01:34;;;;;;;4.57;3.10;;;24.80;40.20;;;;;;20136883;28;80592;-66
2021/07/28 02:11:38;;;;;;;8.05;3.97;;;24.60;40.70;;;;;;20137758;29;80122;-66
2021/07/28 02:21:43;;;;;;;5.47;3.58;;;24.50;41.30;;;;;;20137132;29;80708;-69
2021/07/28 02:31:45;;;;;;;6.47;3.78;;;24.40;41.50;;;;;;20136596;28;80041;-69
2021/07/28 02:41:48;;;;;;;6.55;3.30;;;24.40;40.50;;;;;;20140709;28;81938;-68
2021/07/28 02:51:52;;;;;;;6.75;3.65;;;24.40;40.40;;;;;;20133121;28;81360;-68
2021/07/28 03:01:56;;;;;;;4.90;3.42;;;24.40;40.50;;;;;;20136867;28;80732;-70
2021/07/28 03:11:59;;;;;;;5.93;3.42;;;24.40;40.80;;;;;;20135438;28;81098;-70
2021/07/28 03:22:01;;;;;;;6.60;4.13;;;24.40;40.70;;;;;;20137896;28;80696;-70
2021/07/28 03:32:03;;;;;;;7.90;3.80;;;24.30;40.10;;;;;;20131900;28;80575;-71
2021/07/28 03:42:06;;;;;;;5.90;3.60;;;24.30;40.50;;;;;;20137915;28;81603;-69
2021/07/28 03:52:09;;;;;;;7.10;3.85;;;24.10;41.00;;;;;;20132399;29;80523;-70
2021/07/28 04:02:13;;;;;;;6.35;3.80;;;23.90;41.20;;;;;;20134334;29;81411;-68
2021/07/28 04:12:17;;;;;;;5.22;3.05;;;23.80;41.60;;;;;;20130997;29;80641;-68
2021/07/28 04:22:20;;;;;;;6.13;4.25;;;23.70;42.50;;;;;;20134702;29;80687;-67
2021/07/28 04:32:23;;;;;;;5.43;3.40;;;23.50;43.40;;;;;;20130264;29;80492;-68
2021/07/28 04:42:25;;;;;;;6.45;3.78;;;23.40;44.10;;;;;;20134835;29;81272;-70
2021/07/28 04:52:29;;;;;;;5.88;3.58;;;23.40;43.90;;;;;;20130316;29;80423;-69
2021/07/28 05:02:32;;;;;;;6.65;3.15;;;23.20;44.20;;;;;;20135583;29;82030;-68
2021/07/28 05:12:35;;;;;;;9.73;4.40;;;23.20;44.40;;;;;;20133513;29;80011;-68
2021/07/28 05:22:37;;;;;;;6.55;4.25;;;23.00;44.70;;;;;;20139260;29;81401;-69
2021/07/28 05:32:40;;;;;;;7.30;3.90;;;22.90;44.90;;;;;;20143855;28;80778;-68
2021/07/28 05:42:44;;;;;;;6.95;3.78;;;22.90;45.20;;;;;;20135864;29;80951;-68
2021/07/28 05:52:47;;;;;;;7.18;3.42;;;22.90;45.70;;;;;;20140359;28;80709;-67
2021/07/28 06:02:49;;;;;;;7.13;3.67;;;23.20;46.50;;;;;;20138863;28;83018;-67
2021/07/28 06:12:52;;;;;;;7.57;3.78;;;23.40;47.00;;;;;;20142683;29;81331;-68
2021/07/28 06:22:53;;;;;;;7.47;4.05;;;23.70;47.00;;;;;;20139411;28;81197;-68
2021/07/28 06:32:56;;;;;;;10.35;3.85;;;23.90;47.20;;;;;;20130446;28;81275;-68
2021/07/28 06:42:58;;;;;;;8.55;3.88;;;23.90;47.30;;;;;;20133115;28;81208;-69
2021/07/28 06:53:01;;;;;;;11.85;5.65;;;24.00;47.50;;;;;;20137215;28;80537;-67
2021/07/28 07:03:04;;;;;;;8.00;3.70;;;24.20;48.50;;;;;;20133606;28;81191;-69
2021/07/28 07:13:07;;;;;;;54.53;34.30;;;24.30;49.00;;;;;;20130473;28;81113;-69
2021/07/28 07:23:11;;;;;;;12.60;6.18;;;24.40;49.30;;;;;;20112880;29;83311;-70
2021/07/28 07:43:41;;;;;;;8.23;4.65;;;24.80;50.30;;;;;;20122209;28;82980;-71
2021/07/28 07:53:43;;;;;;;18.65;5.43;;;24.90;49.80;;;;;;20129685;29;83279;-69
2021/07/28 08:03:47;;;;;;;38.28;24.88;;;25.00;49.30;;;;;;20137531;28;80514;-70
2021/07/28 08:13:49;;;;;;;19.73;8.30;;;25.20;49.90;;;;;;20127772;28;83030;-70
2021/07/28 08:23:51;;;;;;;17.23;7.43;;;25.40;49.80;;;;;;20123226;28;82111;-71
2021/07/28 08:33:56;;;;;;;12.90;5.45;;;25.70;49.40;;;;;;20123532;28;83544;-69
2021/07/28 08:43:58;;;;;;;16.98;6.18;;;25.90;48.60;;;;;;20107282;28;80806;-68
2021/07/28 08:54:00;;;;;;;14.30;6.05;;;26.00;48.40;;;;;;20147030;28;81830;-69
2021/07/28 09:04:04;;;;;;;13.80;5.57;;;26.30;47.40;;;;;;20157231;28;81937;-69
2021/07/28 09:14:19;;;;;;;12.23;4.90;;;26.50;47.00;;;;;;20135978;28;81740;-70
2021/07/28 09:24:25;;;;;;;16.17;6.13;;;26.80;46.20;;;;;;20140318;28;80749;-68
2021/07/28 09:34:28;;;;;;;8.45;4.95;;;27.20;45.40;;;;;;20137299;28;81961;-70
2021/07/28 09:44:32;;;;;;;9.55;4.95;;;27.70;44.90;;;;;;20111852;29;80473;-70
2021/07/28 09:54:35;;;;;;;18.27;5.10;;;28.20;43.60;;;;;;20116312;29;81707;-71
2021/07/28 10:04:40;;;;;;;11.25;4.95;;;28.60;42.60;;;;;;20142724;28;82930;-72
2021/07/28 10:14:43;;;;;;;12.45;4.70;;;29.00;42.00;;;;;;20123269;28;81899;-73
2021/07/28 10:24:46;;;;;;;9.65;4.90;;;29.40;41.10;;;;;;20150220;28;80715;-71
2021/07/28 10:34:48;;;;;;;17.75;6.40;;;29.70;40.30;;;;;;20128911;28;81521;-70
2021/07/28 10:45:02;;;;;;;10.82;5.45;;;30.20;40.50;;;;;;20138364;28;81480;-71
2021/07/28 10:55:05;;;;;;;8.35;5.43;;;31.10;38.40;;;;;;20127434;28;81956;-69
2021/07/28 11:05:22;;;;;;;9.57;5.20;;;34.50;32.00;;;;;;20132362;28;80848;-70
2021/07/28 11:15:25;;;;;;;7.70;4.53;;;35.00;31.10;;;;;;20095349;29;81822;-71
2021/07/28 11:25:31;;;;;;;5.53;4.18;;;36.50;28.50;;;;;;20097570;28;80724;-69
2021/07/28 11:35:44;;;;;;;5.63;3.42;;;38.70;25.70;;;;;;20142282;28;81810;-72
2021/07/28 11:45:45;;;;;;;6.57;4.20;;;40.60;23.10;;;;;;20177472;28;80134;-72
2021/07/28 11:55:48;;;;;;;8.73;4.35;;;42.30;21.00;;;;;;20133188;28;81285;-71
2021/07/28 12:06:00;;;;;;;8.52;4.05;;;42.80;20.80;;;;;;20114984;29;80411;-72
2021/07/28 12:16:03;;;;;;;7.95;3.80;;;41.90;21.00;;;;;;20135097;29;81127;-72
2021/07/28 12:26:06;;;;;;;6.28;3.33;;;41.60;20.30;;;;;;20114752;28;80790;-71
2021/07/28 12:36:08;;;;;;;6.22;3.70;;;43.60;18.60;;;;;;20132368;29;80749;-72
2021/07/28 12:46:10;;;;;;;4.30;3.90;;;45.50;17.70;;;;;;20128997;29;81801;-73
2021/07/28 12:56:12;;;;;;;4.70;3.80;;;45.20;17.90;;;;;;20081992;29;80700;-72
2021/07/28 13:06:16;;;;;;;6.57;4.25;;;44.70;18.20;;;;;;20126896;29;80761;-70
2021/07/28 13:16:18;;;;;;;7.15;4.20;;;45.70;17.50;;;;;;20117274;28;81668;-70
2021/07/28 13:26:20;;;;;;;6.38;3.80;;;47.10;16.50;;;;;;20121683;28;80848;-68
2021/07/28 13:36:22;;;;;;;5.78;3.97;;;48.10;15.80;;;;;;20125296;28;81857;-71
2021/07/28 13:46:27;;;;;;;6.47;3.60;;;48.60;15.40;;;;;;20134493;28;81772;-71
2021/07/28 13:56:30;;;;;;;6.93;3.88;;;46.50;15.80;;;;;;20120615;28;81757;-71
2021/07/28 14:06:31;;;;;;;5.47;3.50;;;41.70;18.60;;;;;;20124559;28;80034;-71
2021/07/28 14:16:33;;;;;;;4.30;3.60;;;39.30;20.40;;;;;;20107315;28;81268;-69
2021/07/28 14:26:35;;;;;;;9.68;3.35;;;38.30;21.60;;;;;;20115072;28;81322;-70
2021/07/28 14:36:37;;;;;;;7.80;3.70;;;37.60;21.70;;;;;;20110242;28;81103;-68
2021/07/28 14:46:42;;;;;;;14.77;9.63;;;37.20;22.00;;;;;;20124873;28;81832;-69
2021/07/28 14:56:44;;;;;;;5.22;3.53;;;36.80;22.50;;;;;;20106706;28;80220;-68
2021/07/28 15:06:47;;;;;;;5.25;3.50;;;36.40;22.70;;;;;;20098020;28;81484;-68
2021/07/28 15:16:48;;;;;;;8.05;3.65;;;36.00;23.10;;;;;;20122860;28;80495;-68
2021/07/28 15:26:50;;;;;;;8.20;3.28;;;35.90;23.60;;;;;;20134248;28;80980;-67
2021/07/28 15:36:52;;;;;;;4.75;2.92;;;35.60;23.80;;;;;;20136433;29;82036;-68
2021/07/28 15:46:53;;;;;;;7.38;2.90;;;35.50;23.80;;;;;;20134753;29;81866;-68
2021/07/28 15:56:55;;;;;;;5.07;3.42;;;35.30;23.80;;;;;;20131565;28;80607;-67
2021/07/28 16:06:57;;;;;;;4.38;3.30;;;35.00;24.40;;;;;;20125968;28;82056;-68
2021/07/28 16:17:16;;;;;;;7.82;5.35;;;34.90;23.90;;;;;;20114958;29;80192;-69
2021/07/28 16:27:17;;;;;;;7.47;3.33;;;34.90;24.20;;;;;;20129561;28;81942;-69
2021/07/28 16:37:19;;;;;;;5.57;3.15;;;34.60;24.40;;;;;;20127645;28;81582;-70
2021/07/28 16:47:21;;;;;;;7.72;2.90;;;34.40;24.40;;;;;;20129981;29;80976;-70
2021/07/28 16:57:22;;;;;;;3.80;2.95;;;33.90;25.20;;;;;;20109492;29;80584;-70
2021/07/28 17:07:24;;;;;;;6.03;3.13;;;33.60;25.50;;;;;;20134831;28;80099;-71
2021/07/28 17:17:26;;;;;;;5.72;2.83;;;33.40;25.90;;;;;;20142196;28;80971;-71
2021/07/28 17:27:28;;;;;;;6.07;3.00;;;33.30;26.00;;;;;;20140880;28;81139;-71
2021/07/28 17:37:43;;;;;;;8.20;3.45;;;33.10;26.60;;;;;;20141462;28;80641;-72
2021/07/28 17:47:44;;;;;;;6.18;2.92;;;32.90;26.20;;;;;;20130238;28;82664;-71
2021/07/28 17:57:46;;;;;;;11.65;8.55;;;32.70;26.50;;;;;;20114544;28;81199;-72
2021/07/28 18:07:48;;;;;;;9.20;6.93;;;32.70;27.00;;;;;;20133286;28;81640;-73
2021/07/28 18:17:50;;;;;;;12.07;9.80;;;32.50;27.00;;;;;;20126302;28;81306;-71
2021/07/28 18:27:52;;;;;;;10.52;5.32;;;32.40;27.40;;;;;;20116494;28;81664;-71
2021/07/28 18:37:55;;;;;;;7.40;6.03;;;32.20;27.80;;;;;;20134558;29;81730;-69
2021/07/28 18:47:57;;;;;;;8.05;6.18;;;32.00;27.70;;;;;;20130461;29;80741;-69
2021/07/28 18:57:58;;;;;;;4.55;2.83;;;31.90;27.50;;;;;;20132490;28;80637;-70
2021/07/28 19:08:00;;;;;;;7.82;4.97;;;31.80;27.20;;;;;;20142490;28;81453;-71
2021/07/28 19:18:02;;;;;;;11.93;8.43;;;31.70;28.00;;;;;;20130542;29;81798;-70
2021/07/28 19:28:04;;;;;;;14.10;8.50;;;31.50;28.70;;;;;;20135369;28;81548;-69
2021/07/28 19:38:06;;;;;;;8.77;5.68;;;31.30;29.40;;;;;;20116413;28;81030;-69
2021/07/28 19:48:27;;;;;;;9.20;4.45;;;31.20;30.20;;;;;;20125128;28;81149;-70
2021/07/28 19:58:29;;;;;;;6.60;4.90;;;31.10;29.30;;;;;;20121031;28;81125;-71
2021/07/28 20:08:31;;;;;;;12.07;9.30;;;31.00;29.70;;;;;;20133862;28;81590;-69
2021/07/28 20:18:33;;;;;;;8.73;5.95;;;30.90;30.20;;;;;;20115634;28;81305;-68
2021/07/28 20:28:39;;;;;;;7.53;5.07;;;30.80;30.10;;;;;;20096813;28;80715;-68
2021/07/28 20:38:41;;;;;;;9.07;5.25;;;30.60;30.60;;;;;;20119093;29;81676;-67
2021/07/28 20:48:43;;;;;;;5.28;4.10;;;30.50;30.80;;;;;;20118971;28;81293;-68
2021/07/28 20:58:45;;;;;;;7.30;4.40;;;30.40;30.90;;;;;;20122850;28;81160;-67
2021/07/28 21:08:46;;;;;;;5.97;3.75;;;30.40;30.90;;;;;;20130447;28;81967;-67
2021/07/28 21:18:48;;;;;;;45.67;36.20;;;30.20;30.90;;;;;;20125593;28;80738;-67
2021/07/28 21:28:50;;;;;;;9.63;6.43;;;30.00;31.10;;;;;;20112505;28;84389;-67
2021/07/28 21:38:52;;;;;;;10.13;5.13;;;29.70;32.20;;;;;;20118585;28;82119;-67
2021/07/28 21:48:55;;;;;;;8.18;5.05;;;29.40;33.50;;;;;;20131675;28;80348;-67
2021/07/28 21:59:09;;;;;;;17.95;11.02;;;29.10;34.60;;;;;;20143180;29;81316;-66
2021/07/28 22:09:11;;;;;;;15.65;8.35;;;28.80;36.20;;;;;;20131100;28;82815;-69
2021/07/28 22:19:12;;;;;;;16.33;7.20;;;28.30;39.20;;;;;;20136549;29;83609;-66
2021/07/28 22:29:14;;;;;;;14.50;10.65;;;27.90;41.20;;;;;;20137372;28;80869;-67
2021/07/28 22:39:15;;;;;;;11.80;8.20;;;27.60;42.00;;;;;;20129329;28;83195;-67
2021/07/28 23:10:13;;;;;;;13.27;4.88;;;27.20;39.60;;;;;;20206421;28;80940;-66
2021/07/28 23:20:15;;;;;;;10.30;4.55;;;27.90;36.50;;;;;;20127032;29;82102;-66
2021/07/28 23:30:17;;;;;;;11.20;3.80;;;28.20;36.00;;;;;;20102523;28;80507;-67
2021/07/28 23:40:19;;;;;;;11.60;3.90;;;28.30;36.10;;;;;;20133000;29;80946;-66
2021/07/28 23:50:21;;;;;;;6.65;4.32;;;28.20;37.50;;;;;;20134576;29;81734;-67
